createdAt,value
2022-11-10T00:01:10.495Z,9.99
2022-11-10T00:03:38.845Z,10.00
2022-11-10T00:06:07.283Z,10.04
2022-11-10T00:08:34.164Z,10.04
2022-11-10T00:11:07.607Z,10.03
2022-11-10T00:13:56.413Z,10.01
2022-11-10T00:16:41.631Z,9.97
2022-11-10T00:19:10.694Z,9.93
2022-11-10T00:21:39.660Z,9.94
2022-11-10T00:24:08.412Z,9.94
2022-11-10T00:26:34.932Z,9.92
2022-11-10T00:29:01.499Z,9.90
2022-11-10T00:31:28.688Z,9.89
2022-11-10T00:33:55.846Z,9.88
2022-11-10T00:36:22.687Z,9.86
2022-11-10T00:38:52.835Z,9.86
2022-11-10T00:41:19.772Z,9.86
2022-11-10T00:43:46.394Z,9.83
2022-11-10T00:46:13.178Z,9.83
2022-11-10T00:48:41.905Z,9.81
2022-11-10T00:51:17.718Z,9.81
2022-11-10T00:53:46.613Z,9.80
2022-11-10T00:56:13.234Z,9.72
2022-11-10T00:58:42.057Z,9.77
2022-11-10T01:01:09.642Z,9.76
2022-11-10T01:03:36.582Z,9.70
2022-11-10T01:06:14.411Z,9.76
2022-11-10T01:08:42.378Z,9.76
2022-11-10T01:11:13.917Z,9.76
2022-11-10T01:13:40.909Z,9.75
2022-11-10T01:16:15.768Z,9.72
2022-11-10T01:18:42.931Z,9.68
2022-11-10T01:21:09.771Z,9.71
2022-11-10T01:23:36.688Z,9.72
2022-11-10T01:26:06.461Z,9.71
2022-11-10T01:28:36.783Z,9.65
2022-11-10T01:31:10.858Z,9.67
2022-11-10T01:33:40.101Z,9.65
2022-11-10T01:36:09.325Z,9.69
2022-11-10T01:38:38.055Z,9.68
2022-11-10T01:41:07.115Z,9.69
2022-11-10T01:43:34.445Z,9.68
2022-11-10T01:46:02.025Z,9.62
2022-11-10T01:48:44.057Z,9.65
2022-11-10T01:51:18.538Z,9.63
2022-11-10T01:53:49.892Z,9.61
2022-11-10T01:56:16.951Z,9.59
2022-11-10T01:58:53.378Z,9.59
2022-11-10T02:01:22.641Z,9.58
2022-11-10T02:03:51.908Z,9.58
2022-11-10T02:06:24.797Z,9.58
2022-11-10T02:08:56.794Z,9.56
2022-11-10T02:11:23.537Z,9.48
2022-11-10T02:13:52.826Z,9.57
2022-11-10T02:16:19.529Z,9.54
2022-11-10T02:18:46.089Z,9.56
2022-11-10T02:21:16.738Z,9.57
2022-11-10T02:23:52.181Z,9.56
2022-11-10T02:26:27.865Z,9.58
2022-11-10T02:28:59.316Z,9.52
2022-11-10T02:31:25.861Z,9.52
2022-11-10T02:33:54.671Z,9.60
2022-11-10T02:36:21.210Z,9.60
2022-11-10T02:38:47.703Z,9.60
2022-11-10T02:41:14.176Z,9.58
2022-11-10T02:43:40.873Z,9.58
2022-11-10T02:46:07.334Z,9.56
2022-11-10T02:48:33.858Z,9.55
2022-11-10T02:51:00.387Z,9.49
2022-11-10T02:53:26.891Z,9.43
2022-11-10T02:55:53.496Z,9.47
2022-11-10T02:58:20.009Z,9.45
2022-11-10T03:00:46.550Z,9.43
2022-11-10T03:03:13.070Z,9.42
2022-11-10T03:05:39.637Z,9.40
2022-11-10T03:08:06.337Z,9.38
2022-11-10T03:10:33.041Z,9.38
2022-11-10T03:13:01.888Z,9.36
2022-11-10T03:15:29.152Z,9.32
2022-11-10T03:17:56.391Z,9.33
2022-11-10T03:20:22.944Z,9.29
2022-11-10T03:22:49.455Z,9.28
2022-11-10T03:25:16.039Z,9.26
2022-11-10T03:27:42.542Z,9.26
2022-11-10T03:30:10.476Z,9.23
2022-11-10T03:32:37.089Z,9.18
2022-11-10T03:35:04.009Z,9.25
2022-11-10T03:37:30.640Z,9.19
2022-11-10T03:39:57.142Z,9.23
2022-11-10T03:42:23.650Z,9.22
2022-11-10T03:44:50.145Z,9.06
2022-11-10T03:47:16.884Z,9.20
2022-11-10T03:49:43.486Z,9.19
2022-11-10T03:52:10.101Z,9.18
2022-11-10T03:54:36.609Z,9.18
2022-11-10T03:57:03.184Z,9.18
2022-11-10T03:59:29.687Z,9.13
2022-11-10T04:01:56.356Z,9.10
2022-11-10T04:04:41.660Z,9.19
2022-11-10T04:07:30.787Z,9.19
2022-11-10T04:09:57.268Z,9.19
2022-11-10T04:12:42.370Z,9.17
2022-11-10T04:15:32.508Z,9.17
2022-11-10T04:18:19.105Z,9.15
2022-11-10T04:20:48.345Z,9.14
2022-11-10T04:23:28.087Z,9.15
2022-11-10T04:26:15.847Z,9.12
2022-11-10T04:28:43.278Z,9.12
2022-11-10T04:31:10.239Z,9.09
2022-11-10T04:33:37.652Z,9.13
2022-11-10T04:36:07.021Z,9.10
2022-11-10T04:38:34.010Z,8.96
2022-11-10T04:41:00.696Z,9.10
2022-11-10T04:43:27.773Z,9.11
2022-11-10T04:45:54.935Z,9.10
2022-11-10T04:48:22.148Z,9.11
2022-11-10T04:50:51.133Z,9.10
2022-11-10T04:53:20.905Z,9.05
2022-11-10T04:55:47.925Z,9.07
2022-11-10T04:58:14.847Z,9.09
2022-11-10T05:00:42.375Z,9.08
2022-11-10T05:03:11.075Z,9.03
2022-11-10T05:05:40.157Z,9.04
2022-11-10T05:08:10.270Z,9.05
2022-11-10T05:10:38.038Z,8.99
2022-11-10T05:13:06.172Z,9.03
2022-11-10T05:15:33.234Z,9.01
2022-11-10T05:18:00.018Z,9.02
2022-11-10T05:20:27.291Z,8.85
2022-11-10T05:23:12.399Z,9.02
2022-11-10T05:25:41.653Z,9.01
2022-11-10T05:28:09.902Z,9.01
2022-11-10T05:30:36.979Z,9.01
2022-11-10T05:33:04.402Z,9.01
2022-11-10T05:35:33.369Z,9.01
2022-11-10T05:37:59.983Z,8.96
2022-11-10T05:40:28.929Z,8.99
2022-11-10T05:42:55.526Z,9.02
2022-11-10T05:45:26.196Z,9.00
2022-11-10T05:47:53.415Z,8.99
2022-11-10T05:50:21.453Z,8.97
2022-11-10T05:52:50.547Z,8.95
2022-11-10T05:55:23.394Z,8.97
2022-11-10T05:57:51.463Z,8.98
2022-11-10T06:00:30.092Z,8.97
2022-11-10T06:03:07.984Z,8.96
2022-11-10T06:05:35.857Z,8.98
2022-11-10T06:08:06.627Z,8.97
2022-11-10T06:10:34.676Z,8.95
2022-11-10T06:13:01.935Z,8.93
2022-11-10T06:15:28.913Z,8.95
2022-11-10T06:17:56.273Z,8.94
2022-11-10T06:20:23.845Z,8.91
2022-11-10T06:23:07.248Z,8.96
2022-11-10T06:25:35.797Z,8.95
2022-11-10T06:28:03.149Z,8.95
2022-11-10T06:30:31.121Z,8.95
2022-11-10T06:32:58.072Z,8.95
2022-11-10T06:35:25.533Z,8.94
2022-11-10T06:38:01.562Z,8.95
2022-11-10T06:40:29.076Z,8.89
2022-11-10T06:42:55.990Z,8.93
2022-11-10T06:45:23.320Z,8.90
2022-11-10T06:47:58.419Z,8.91
2022-11-10T06:50:24.953Z,8.92
2022-11-10T06:52:58.844Z,8.88
2022-11-10T06:55:28.164Z,8.92
2022-11-10T06:57:54.845Z,8.95
2022-11-10T07:00:22.126Z,8.96
2022-11-10T07:02:48.852Z,8.96
2022-11-10T07:05:15.467Z,8.96
2022-11-10T07:07:42.823Z,8.96
2022-11-10T07:10:11.763Z,9.06
2022-11-10T07:12:38.302Z,9.10
2022-11-10T07:15:05.646Z,9.28
2022-11-10T07:17:32.444Z,9.35
2022-11-10T07:19:59.069Z,9.32
2022-11-10T07:22:25.590Z,9.30
2022-11-10T07:24:54.412Z,9.31
2022-11-10T07:27:23.416Z,9.29
2022-11-10T07:29:50.046Z,9.30
2022-11-10T07:32:16.620Z,9.31
2022-11-10T07:34:48.001Z,9.32
2022-11-10T07:37:16.809Z,9.33
2022-11-10T07:39:43.469Z,9.36
2022-11-10T07:42:10.010Z,9.36
2022-11-10T07:44:36.578Z,9.37
2022-11-10T07:47:03.175Z,9.41
2022-11-10T07:49:29.704Z,9.42
2022-11-10T07:51:56.297Z,9.46
2022-11-10T07:54:22.993Z,9.50
2022-11-10T07:56:49.682Z,9.52
2022-11-10T07:59:16.285Z,9.50
2022-11-10T08:01:42.845Z,9.60
2022-11-10T08:04:09.445Z,9.63
2022-11-10T08:06:38.413Z,9.67
2022-11-10T08:09:07.121Z,9.72
2022-11-10T08:11:33.839Z,9.77
2022-11-10T08:14:00.338Z,9.82
2022-11-10T08:16:26.885Z,9.83
2022-11-10T08:18:53.634Z,9.90
2022-11-10T08:21:22.669Z,9.95
2022-11-10T08:23:51.457Z,9.98
2022-11-10T08:26:18.385Z,10.03
2022-11-10T08:28:45.152Z,10.07
2022-11-10T08:31:11.749Z,10.14
2022-11-10T08:33:38.281Z,10.19
2022-11-10T08:36:07.332Z,10.21
2022-11-10T08:38:33.906Z,10.29
2022-11-10T08:41:00.500Z,10.34
2022-11-10T08:43:27.025Z,10.42
2022-11-10T08:45:56.081Z,10.45
2022-11-10T08:48:23.709Z,10.54
2022-11-10T08:50:51.632Z,10.64
2022-11-10T08:53:21.113Z,10.67
2022-11-10T08:55:48.509Z,10.74
2022-11-10T08:58:17.508Z,10.86
2022-11-10T09:00:44.721Z,10.92
2022-11-10T09:03:19.067Z,11.15
2022-11-10T09:05:52.407Z,11.47
2022-11-10T09:08:23.409Z,11.84
2022-11-10T09:10:52.710Z,12.04
2022-11-10T09:13:29.105Z,12.24
2022-11-10T09:16:00.395Z,12.34
2022-11-10T09:18:26.985Z,12.42
2022-11-10T09:20:55.771Z,12.57
2022-11-10T09:23:24.817Z,12.67
2022-11-10T09:25:54.141Z,12.74
2022-11-10T09:28:21.847Z,12.66
2022-11-10T09:30:50.391Z,12.84
2022-11-10T09:33:20.256Z,12.89
2022-11-10T09:35:47.371Z,12.96
2022-11-10T09:38:14.125Z,12.95
2022-11-10T09:41:06.572Z,13.02
2022-11-10T09:43:51.282Z,12.97
2022-11-10T09:46:29.058Z,13.24
2022-11-10T09:49:03.682Z,13.29
2022-11-10T09:51:41.750Z,13.27
2022-11-10T09:54:22.493Z,13.28
2022-11-10T09:56:53.762Z,13.33
2022-11-10T09:59:26.648Z,13.41
2022-11-10T10:02:13.535Z,13.44
2022-11-10T10:05:05.069Z,13.49
2022-11-10T10:08:00.254Z,13.50
2022-11-10T10:10:52.089Z,13.61
2022-11-10T10:13:28.032Z,13.75
2022-11-10T10:16:26.489Z,13.83
2022-11-10T10:18:59.870Z,13.89
2022-11-10T10:21:40.932Z,13.96
2022-11-10T10:24:19.807Z,14.06
2022-11-10T10:26:53.731Z,14.10
2022-11-10T10:29:25.030Z,14.12
2022-11-10T10:31:53.332Z,14.14
2022-11-10T10:34:30.241Z,14.13
2022-11-10T10:36:57.040Z,14.25
2022-11-10T10:39:36.312Z,14.33
2022-11-10T10:42:07.313Z,14.41
2022-11-10T10:44:33.823Z,14.51
2022-11-10T10:47:04.470Z,14.55
2022-11-10T10:49:33.787Z,14.68
2022-11-10T10:52:04.859Z,14.75
2022-11-10T10:54:36.883Z,14.78
2022-11-10T10:57:23.368Z,14.94
2022-11-10T11:00:11.920Z,15.03
2022-11-10T11:02:40.680Z,15.03
2022-11-10T11:05:17.261Z,14.99
2022-11-10T11:08:17.696Z,15.13
2022-11-10T11:10:46.210Z,15.27
2022-11-10T11:13:27.685Z,15.32
2022-11-10T11:16:03.607Z,15.47
2022-11-10T11:18:32.048Z,15.52
2022-11-10T11:21:08.270Z,15.63
2022-11-10T11:23:43.824Z,15.76
2022-11-10T11:26:28.133Z,15.80
2022-11-10T11:29:19.497Z,15.93
2022-11-10T11:32:23.613Z,16.06
2022-11-10T11:35:06.281Z,16.12
2022-11-10T11:37:49.041Z,16.04
2022-11-10T11:40:37.972Z,16.06
2022-11-10T11:43:07.504Z,16.02
2022-11-10T11:45:53.320Z,15.97
2022-11-10T11:48:40.825Z,15.99
2022-11-10T11:51:18.728Z,15.95
2022-11-10T11:54:22.523Z,16.04
2022-11-10T11:56:50.691Z,16.08
2022-11-10T11:59:52.891Z,16.12
2022-11-10T12:02:47.520Z,16.19
2022-11-10T12:05:58.074Z,16.26
2022-11-10T12:08:54.192Z,16.35
2022-11-10T12:11:44.291Z,16.44
2022-11-10T12:14:38.572Z,16.48
2022-11-10T12:17:48.953Z,16.50
2022-11-10T12:20:33.446Z,16.43
2022-11-10T12:23:13.275Z,16.60
2022-11-10T12:26:02.681Z,16.57
2022-11-10T12:28:49.844Z,16.55
2022-11-10T12:31:21.945Z,16.51
2022-11-10T12:33:56.761Z,16.38
2022-11-10T12:36:25.527Z,16.45
2022-11-10T12:38:59.677Z,16.47
2022-11-10T12:41:34.968Z,16.42
2022-11-10T12:44:04.717Z,16.57
2022-11-10T12:46:31.291Z,16.55
2022-11-10T12:49:00.806Z,16.55
2022-11-10T12:51:42.950Z,16.54
2022-11-10T12:54:16.639Z,16.58
2022-11-10T12:56:57.548Z,16.66
2022-11-10T12:59:34.121Z,16.70
2022-11-10T13:02:17.931Z,16.62
2022-11-10T13:04:44.516Z,16.63
2022-11-10T13:07:13.919Z,16.78
2022-11-10T13:09:43.862Z,16.69
2022-11-10T13:12:10.321Z,16.79
2022-11-10T13:14:38.467Z,16.63
2022-11-10T13:17:05.677Z,16.59
2022-11-10T13:19:38.815Z,16.53
2022-11-10T13:22:10.332Z,16.48
2022-11-10T13:24:42.561Z,16.44
2022-11-10T13:27:33.581Z,16.53
2022-11-10T13:30:00.601Z,16.80
2022-11-10T13:32:30.271Z,16.71
2022-11-10T13:35:28.566Z,16.62
2022-11-10T13:37:56.481Z,16.56
2022-11-10T13:40:23.249Z,16.64
2022-11-10T13:42:58.902Z,16.55
2022-11-10T13:45:36.038Z,16.51
2022-11-10T13:48:11.711Z,16.47
2022-11-10T13:50:41.239Z,16.45
2022-11-10T13:53:41.389Z,16.55
2022-11-10T13:56:32.881Z,16.75
2022-11-10T13:58:59.686Z,16.47
2022-11-10T14:01:30.312Z,16.37
2022-11-10T14:04:02.353Z,16.39
2022-11-10T14:06:47.106Z,16.31
2022-11-10T14:09:23.040Z,16.25
2022-11-10T14:11:55.988Z,16.07
2022-11-10T14:14:52.030Z,16.20
2022-11-10T14:17:29.442Z,16.15
2022-11-10T14:19:56.059Z,16.18
2022-11-10T14:22:34.788Z,16.13
2022-11-10T14:25:01.412Z,16.07
2022-11-10T14:27:33.896Z,16.02
2022-11-10T14:30:24.685Z,15.97
2022-11-10T14:32:56.477Z,15.92
2022-11-10T14:35:26.813Z,15.87
2022-11-10T14:37:59.432Z,15.85
2022-11-10T14:40:28.222Z,15.80
2022-11-10T14:42:55.527Z,15.79
2022-11-10T14:45:25.185Z,15.76
2022-11-10T14:48:00.523Z,15.68
2022-11-10T14:50:36.233Z,15.61
2022-11-10T14:53:14.625Z,15.54
2022-11-10T14:55:44.856Z,15.48
2022-11-10T14:58:15.153Z,15.42
2022-11-10T15:00:44.502Z,15.35
2022-11-10T15:03:20.205Z,15.29
2022-11-10T15:05:48.345Z,15.19
2022-11-10T15:08:16.895Z,15.19
2022-11-10T15:10:53.423Z,15.11
2022-11-10T15:13:36.267Z,15.06
2022-11-10T15:16:21.086Z,15.01
2022-11-10T15:18:50.902Z,14.96
2022-11-10T15:21:20.274Z,14.91
2022-11-10T15:23:55.357Z,14.85
2022-11-10T15:26:25.217Z,14.80
2022-11-10T15:28:52.845Z,14.75
2022-11-10T15:31:28.344Z,14.67
2022-11-10T15:34:05.586Z,14.58
2022-11-10T15:36:35.723Z,14.53
2022-11-10T15:39:20.284Z,14.47
2022-11-10T15:41:48.996Z,14.37
2022-11-10T15:44:21.540Z,14.31
2022-11-10T15:46:52.571Z,14.21
2022-11-10T15:49:31.439Z,14.16
2022-11-10T15:52:01.829Z,14.13
2022-11-10T15:54:32.040Z,14.07
2022-11-10T15:56:58.756Z,14.02
2022-11-10T15:59:25.460Z,13.96
2022-11-10T16:01:52.943Z,13.92
2022-11-10T16:04:19.587Z,13.86
2022-11-10T16:06:46.750Z,13.83
2022-11-10T16:09:14.365Z,13.79
2022-11-10T16:11:43.539Z,13.75
2022-11-10T16:14:16.876Z,13.69
2022-11-10T16:16:43.863Z,13.65
2022-11-10T16:19:11.638Z,13.64
2022-11-10T16:21:38.618Z,13.64
2022-11-10T16:24:05.368Z,13.59
2022-11-10T16:26:34.620Z,13.59
2022-11-10T16:29:01.709Z,13.55
2022-11-10T16:31:29.247Z,13.47
2022-11-10T16:33:57.845Z,13.50
2022-11-10T16:36:33.563Z,13.44
2022-11-10T16:39:09.851Z,13.42
2022-11-10T16:41:36.494Z,13.32
2022-11-10T16:44:03.638Z,13.33
2022-11-10T16:46:30.515Z,13.28
2022-11-10T16:49:02.837Z,13.22
2022-11-10T16:51:33.653Z,13.16
2022-11-10T16:54:00.134Z,13.13
2022-11-10T16:56:27.461Z,13.05
2022-11-10T16:58:58.732Z,13.05
2022-11-10T17:01:29.938Z,12.97
2022-11-10T17:04:02.353Z,12.93
2022-11-10T17:06:29.751Z,12.89
2022-11-10T17:09:01.034Z,12.84
2022-11-10T17:11:27.643Z,12.72
2022-11-10T17:13:54.242Z,12.74
2022-11-10T17:16:31.259Z,12.70
2022-11-10T17:19:00.858Z,12.58
2022-11-10T17:21:33.170Z,12.60
2022-11-10T17:24:03.047Z,12.54
2022-11-10T17:26:32.490Z,12.50
2022-11-10T17:28:59.092Z,12.47
2022-11-10T17:31:25.789Z,12.44
2022-11-10T17:33:55.792Z,12.40
2022-11-10T17:36:24.871Z,12.34
2022-11-10T17:38:52.414Z,12.35
2022-11-10T17:41:20.035Z,12.22
2022-11-10T17:43:47.404Z,12.29
2022-11-10T17:46:14.847Z,12.27
2022-11-10T17:48:41.660Z,12.24
2022-11-10T17:51:18.904Z,12.19
2022-11-10T17:53:45.684Z,12.21
2022-11-10T17:56:12.546Z,12.19
2022-11-10T17:58:41.447Z,12.16
2022-11-10T18:01:14.572Z,12.16
2022-11-10T18:03:41.192Z,12.06
2022-11-10T18:06:07.952Z,12.06
2022-11-10T18:08:34.474Z,12.02
2022-11-10T18:11:01.396Z,12.06
2022-11-10T18:13:27.899Z,12.03
2022-11-10T18:15:58.320Z,12.01
2022-11-10T18:18:24.878Z,12.00
2022-11-10T18:20:51.417Z,11.97
2022-11-10T18:23:18.063Z,11.97
2022-11-10T18:25:44.721Z,11.93
2022-11-10T18:28:14.277Z,11.93
2022-11-10T18:30:41.395Z,11.87
2022-11-10T18:33:07.934Z,11.84
2022-11-10T18:35:38.472Z,11.83
2022-11-10T18:38:09.137Z,11.85
2022-11-10T18:40:35.639Z,11.79
2022-11-10T18:43:07.241Z,11.81
2022-11-10T18:45:35.793Z,11.79
2022-11-10T18:48:03.561Z,11.75
2022-11-10T18:50:30.670Z,11.63
2022-11-10T18:52:57.714Z,11.68
2022-11-10T18:55:24.551Z,11.70
2022-11-10T18:57:51.452Z,11.68
2022-11-10T19:00:18.137Z,11.67
2022-11-10T19:02:44.762Z,11.65
2022-11-10T19:05:13.508Z,11.59
2022-11-10T19:07:42.451Z,11.62
2022-11-10T19:10:09.213Z,11.62
2022-11-10T19:12:35.834Z,11.60
2022-11-10T19:15:02.388Z,11.60
2022-11-10T19:17:28.919Z,11.58
2022-11-10T19:19:56.832Z,11.56
2022-11-10T19:22:26.137Z,11.52
2022-11-10T19:25:09.160Z,11.47
2022-11-10T19:27:38.498Z,11.47
2022-11-10T19:30:05.581Z,11.43
2022-11-10T19:32:34.577Z,11.51
2022-11-10T19:35:01.173Z,11.47
2022-11-10T19:37:32.179Z,11.45
2022-11-10T19:40:00.875Z,11.37
2022-11-10T19:42:27.506Z,11.32
2022-11-10T19:44:56.523Z,11.38
2022-11-10T19:47:23.120Z,11.33
2022-11-10T19:49:52.081Z,11.34
2022-11-10T19:52:18.621Z,11.31
2022-11-10T19:54:45.359Z,11.31
2022-11-10T19:57:11.927Z,11.28
2022-11-10T19:59:40.918Z,11.29
2022-11-10T20:02:07.924Z,11.23
2022-11-10T20:04:54.561Z,11.26
2022-11-10T20:07:42.133Z,11.21
2022-11-10T20:10:09.443Z,11.18
2022-11-10T20:12:35.931Z,11.12
2022-11-10T20:15:02.499Z,11.08
2022-11-10T20:17:29.147Z,11.15
2022-11-10T20:19:55.711Z,11.12
2022-11-10T20:22:22.200Z,11.03
2022-11-10T20:24:51.262Z,11.11
2022-11-10T20:27:17.990Z,11.01
2022-11-10T20:29:44.569Z,11.04
2022-11-10T20:32:11.155Z,11.03
2022-11-10T20:34:37.837Z,11.02
2022-11-10T20:37:04.330Z,10.96
2022-11-10T20:39:30.859Z,10.95
2022-11-10T20:41:57.576Z,10.96
2022-11-10T20:44:24.147Z,10.93
2022-11-10T20:46:55.386Z,11.29
2022-11-10T20:49:22.195Z,10.93
2022-11-10T20:51:48.912Z,11.01
2022-11-10T20:54:17.329Z,10.96
2022-11-10T20:56:44.096Z,10.87
2022-11-10T20:59:11.104Z,10.90
2022-11-10T21:01:40.180Z,10.86
2022-11-10T21:04:06.814Z,10.81
2022-11-10T21:06:33.341Z,10.78
2022-11-10T21:08:59.957Z,10.70
2022-11-10T21:11:45.155Z,10.72
2022-11-10T21:14:11.712Z,10.68
2022-11-10T21:16:40.491Z,10.65
2022-11-10T21:19:07.449Z,10.59
2022-11-10T21:21:34.631Z,10.57
2022-11-10T21:24:05.730Z,10.59
2022-11-10T21:26:37.786Z,10.54
2022-11-10T21:29:07.677Z,10.48
2022-11-10T21:31:34.235Z,10.51
2022-11-10T21:34:00.765Z,10.49
2022-11-10T21:36:31.255Z,10.49
2022-11-10T21:38:58.772Z,10.45
2022-11-10T21:41:27.640Z,10.44
2022-11-10T21:43:54.147Z,10.82
2022-11-10T21:46:21.003Z,10.58
2022-11-10T21:48:49.979Z,10.49
2022-11-10T21:51:16.654Z,10.48
2022-11-10T21:53:43.212Z,10.48
2022-11-10T21:56:11.070Z,10.45
2022-11-10T21:58:38.457Z,10.43
2022-11-10T22:01:14.432Z,10.36
2022-11-10T22:03:43.880Z,10.35
2022-11-10T22:06:18.689Z,10.33
2022-11-10T22:08:48.672Z,10.30
2022-11-10T22:11:39.428Z,10.30
2022-11-10T22:14:32.153Z,10.25
2022-11-10T22:17:20.580Z,10.17
2022-11-10T22:19:47.138Z,10.19
2022-11-10T22:22:16.566Z,10.14
2022-11-10T22:24:43.063Z,10.17
2022-11-10T22:27:09.945Z,10.15
2022-11-10T22:29:36.475Z,10.13
2022-11-10T22:32:03.783Z,10.11
2022-11-10T22:34:30.579Z,10.07
2022-11-10T22:36:59.873Z,10.04
2022-11-10T22:39:46.548Z,10.07
2022-11-10T22:42:34.422Z,10.05
2022-11-10T22:45:00.916Z,10.02
2022-11-10T22:47:47.447Z,9.99
2022-11-10T22:50:14.020Z,9.98
2022-11-10T22:52:40.560Z,9.96
2022-11-10T22:55:07.415Z,9.98
2022-11-10T22:57:36.189Z,9.95
2022-11-10T23:00:02.896Z,9.91
2022-11-10T23:02:29.458Z,9.85
2022-11-10T23:04:55.997Z,9.89
2022-11-10T23:07:22.524Z,9.88
2022-11-10T23:09:51.669Z,9.85
2022-11-10T23:12:18.524Z,9.85
2022-11-10T23:14:45.013Z,9.80
2022-11-10T23:17:11.542Z,9.76
2022-11-10T23:19:38.083Z,9.77
2022-11-10T23:22:04.604Z,9.79
2022-11-10T23:24:33.333Z,9.75
2022-11-10T23:26:59.886Z,9.74
2022-11-10T23:29:28.808Z,9.73
2022-11-10T23:31:55.334Z,9.72
2022-11-10T23:34:21.885Z,9.71
2022-11-10T23:36:48.444Z,9.70
2022-11-10T23:39:14.971Z,9.76
2022-11-10T23:41:41.445Z,9.77
2022-11-10T23:44:08.235Z,9.78
2022-11-10T23:46:35.367Z,9.80
2022-11-10T23:49:01.909Z,9.82
2022-11-10T23:51:28.464Z,9.78
2022-11-10T23:53:59.863Z,9.87
2022-11-10T23:56:26.380Z,9.97
2022-11-10T23:58:52.912Z,9.98
